Time;durP1;ratioP1;P1;durP2;ratioP2;P2;SDS_P1;SDS_P2;PMS_P1;PMS_P2;Temp;Humidity;BMP_temperature;BMP_pressure;BME280_temperature;BME280_humidity;BME280_pressure;Samples;Min_cycle;Max_cycle;Signal;HPM_P1;HPM_P2
2022/05/28 00:00:19;;;;;;;2.35;0.30;;;23.20;87.60;;;;;;5056121;28;20220;-78
2022/05/28 00:02:47;;;;;;;1.33;0.30;;;23.30;87.70;;;;;;5057453;28;20206;-78
2022/05/28 00:05:14;;;;;;;0.30;0.30;;;23.20;87.80;;;;;;5056191;28;20287;-78
2022/05/28 00:07:41;;;;;;;0.30;0.30;;;23.30;88.00;;;;;;5056404;28;20266;-78
2022/05/28 00:10:11;;;;;;;0.57;0.20;;;23.30;88.10;;;;;;5055891;28;20238;-79
2022/05/28 00:12:40;;;;;;;0.20;0.20;;;23.20;88.20;;;;;;5058091;28;20200;-79
2022/05/28 00:15:08;;;;;;;0.28;0.28;;;23.30;88.40;;;;;;5058585;28;20303;-78
2022/05/28 00:17:36;;;;;;;0.30;0.30;;;23.20;88.50;;;;;;5057352;28;20275;-80
2022/05/28 00:20:03;;;;;;;0.20;0.20;;;23.20;88.70;;;;;;5056437;28;20216;-79
2022/05/28 00:22:30;;;;;;;0.20;0.20;;;23.20;88.60;;;;;;5057234;28;20295;-79
2022/05/28 00:24:57;;;;;;;0.85;0.30;;;23.20;88.60;;;;;;5056339;28;20210;-79
2022/05/28 00:27:24;;;;;;;0.77;0.30;;;23.20;88.60;;;;;;5057081;28;20246;-79
2022/05/28 00:29:53;;;;;;;0.30;0.28;;;23.20;88.60;;;;;;5057480;28;20260;-79
2022/05/28 00:32:20;;;;;;;1.48;0.25;;;23.20;88.70;;;;;;5056953;28;20204;-79
2022/05/28 00:34:48;;;;;;;0.20;0.20;;;23.20;88.80;;;;;;5060141;28;20231;-79
2022/05/28 00:37:14;;;;;;;0.38;0.20;;;23.20;89.00;;;;;;5061529;28;20230;-79
2022/05/28 00:39:41;;;;;;;0.32;0.32;;;23.20;89.30;;;;;;5060803;28;20220;-79
2022/05/28 00:42:09;;;;;;;0.22;0.22;;;23.20;89.40;;;;;;5060610;28;20207;-79
2022/05/28 00:44:36;;;;;;;0.93;0.40;;;23.20;89.50;;;;;;5059933;28;20239;-79
2022/05/28 00:47:06;;;;;;;3.03;0.38;;;23.20;89.70;;;;;;5060408;28;20570;-79
2022/05/28 00:49:33;;;;;;;0.20;0.20;;;23.30;90.00;;;;;;5060658;28;20219;-79
2022/05/28 00:52:03;;;;;;;0.20;0.20;;;23.20;90.00;;;;;;5060451;28;20275;-78
2022/05/28 00:54:36;;;;;;;1.02;0.30;;;23.20;90.40;;;;;;5060007;28;20576;-78
2022/05/28 00:57:04;;;;;;;0.30;0.30;;;23.20;90.10;;;;;;5060276;28;20271;-79
2022/05/28 00:59:31;;;;;;;0.20;0.20;;;23.20;90.20;;;;;;5059449;28;20320;-78
2022/05/28 01:02:03;;;;;;;1.38;0.52;;;23.20;90.20;;;;;;5059139;28;20607;-78
2022/05/28 01:04:39;;;;;;;0.30;0.30;;;23.30;90.30;;;;;;5058777;28;20199;-78
2022/05/28 01:07:16;;;;;;;0.88;0.30;;;23.30;90.30;;;;;;5059625;28;20543;-78
2022/05/28 01:09:52;;;;;;;0.38;0.20;;;23.30;90.40;;;;;;5090842;22;20712;-75
2022/05/28 01:12:29;;;;;;;1.85;0.28;;;23.20;90.40;;;;;;5076138;28;20627;-75
2022/05/28 01:15:05;;;;;;;1.85;0.30;;;23.20;90.50;;;;;;5076818;28;20560;-75
2022/05/28 01:17:38;;;;;;;0.40;0.35;;;23.20;90.60;;;;;;5076722;28;20266;-75
2022/05/28 01:20:12;;;;;;;0.40;0.40;;;23.20;90.70;;;;;;5076479;28;20274;-74
2022/05/28 01:23:00;;;;;;;1.88;0.30;;;23.20;90.70;;;;;;5076645;28;20216;-74
2022/05/28 01:25:34;;;;;;;1.13;0.30;;;23.20;90.80;;;;;;5076021;28;20270;-74
2022/05/28 01:28:06;;;;;;;0.40;0.40;;;23.20;90.90;;;;;;5075546;28;20682;-74
2022/05/28 01:30:33;;;;;;;0.60;0.25;;;23.20;90.90;;;;;;5075820;28;20310;-74
2022/05/28 01:33:02;;;;;;;0.50;0.30;;;23.20;91.00;;;;;;5075698;28;20195;-74
2022/05/28 01:35:31;;;;;;;1.23;0.40;;;23.20;91.00;;;;;;5075737;28;20561;-74
2022/05/28 01:37:59;;;;;;;0.77;0.32;;;23.20;91.00;;;;;;5075398;28;20200;-74
2022/05/28 01:40:27;;;;;;;2.45;0.35;;;23.20;91.10;;;;;;5075509;28;20285;-74
2022/05/28 01:42:57;;;;;;;2.30;0.30;;;23.20;91.10;;;;;;5075572;28;20206;-74
2022/05/28 01:45:29;;;;;;;1.10;0.50;;;23.20;91.10;;;;;;5075381;28;20199;-74
2022/05/28 01:47:59;;;;;;;0.40;0.30;;;23.20;91.20;;;;;;5075425;28;20207;-74
2022/05/28 01:50:28;;;;;;;0.20;0.20;;;23.20;91.50;;;;;;5075087;28;20314;-74
2022/05/28 01:52:57;;;;;;;0.43;0.30;;;23.20;91.20;;;;;;5075410;28;20238;-74
2022/05/28 01:55:26;;;;;;;0.90;0.30;;;23.20;91.20;;;;;;5075323;28;20202;-74
2022/05/28 01:57:53;;;;;;;0.22;0.20;;;23.20;91.30;;;;;;5075242;28;20238;-74
2022/05/28 02:00:20;;;;;;;0.82;0.40;;;23.20;91.20;;;;;;5075165;28;20254;-75
2022/05/28 02:02:48;;;;;;;0.20;0.20;;;23.20;91.30;;;;;;5075185;28;20205;-74
2022/05/28 02:05:15;;;;;;;0.38;0.30;;;23.20;91.30;;;;;;5075126;28;20295;-74
2022/05/28 02:07:42;;;;;;;0.28;0.28;;;23.10;91.30;;;;;;5074967;28;20254;-74
2022/05/28 02:10:13;;;;;;;0.38;0.38;;;23.10;91.40;;;;;;5074613;28;20237;-74
2022/05/28 02:12:47;;;;;;;0.20;0.20;;;23.20;91.40;;;;;;5075055;28;20187;-74
2022/05/28 02:15:29;;;;;;;0.40;0.20;;;23.10;91.40;;;;;;5075016;28;20183;-74
2022/05/28 02:18:05;;;;;;;0.65;0.20;;;23.20;91.40;;;;;;5074667;28;20194;-74
2022/05/28 02:20:39;;;;;;;3.72;0.30;;;23.20;91.60;;;;;;5074790;28;20223;-74
2022/05/28 02:23:10;;;;;;;0.55;0.40;;;23.10;91.50;;;;;;5074445;28;20665;-74
2022/05/28 02:25:45;;;;;;;2.15;0.60;;;23.10;91.60;;;;;;5074715;28;20194;-74
2022/05/28 02:28:13;;;;;;;3.63;0.20;;;23.10;91.70;;;;;;5074681;28;20203;-74
2022/05/28 02:30:47;;;;;;;0.80;0.30;;;23.10;91.80;;;;;;5074612;28;20327;-75
2022/05/28 02:33:16;;;;;;;0.30;0.30;;;23.20;91.80;;;;;;5074576;28;20191;-75
2022/05/28 02:35:44;;;;;;;0.40;0.20;;;23.20;91.90;;;;;;5074535;28;20203;-75
2022/05/28 02:38:11;;;;;;;0.20;0.20;;;23.10;91.80;;;;;;5074151;28;20290;-75
2022/05/28 02:40:38;;;;;;;1.00;0.35;;;23.10;91.80;;;;;;5074355;28;20322;-75
2022/05/28 02:43:05;;;;;;;4.03;0.45;;;23.10;91.90;;;;;;5074291;28;20203;-75
2022/05/28 02:45:32;;;;;;;0.20;0.20;;;23.10;91.80;;;;;;5074324;28;20291;-75
2022/05/28 02:47:59;;;;;;;1.60;0.30;;;23.10;91.90;;;;;;5074279;28;20307;-75
2022/05/28 02:50:28;;;;;;;1.85;0.20;;;23.10;91.80;;;;;;5074324;28;20589;-75
2022/05/28 02:52:55;;;;;;;2.25;0.40;;;23.10;91.80;;;;;;5074135;28;20204;-75
2022/05/28 02:55:22;;;;;;;4.07;0.52;;;23.10;91.80;;;;;;5074142;28;20200;-75
2022/05/28 02:57:49;;;;;;;2.55;0.50;;;23.10;91.80;;;;;;5073560;28;20291;-75
2022/05/28 03:00:17;;;;;;;3.03;0.60;;;23.10;91.90;;;;;;5073633;28;20797;-75
2022/05/28 03:02:45;;;;;;;1.33;0.30;;;23.10;91.80;;;;;;5073779;28;20639;-75
2022/05/28 03:05:13;;;;;;;0.63;0.55;;;23.10;91.90;;;;;;5074009;28;20289;-74
2022/05/28 03:07:41;;;;;;;0.70;0.30;;;23.10;91.80;;;;;;5073570;28;20584;-74
2022/05/28 03:10:09;;;;;;;0.47;0.40;;;23.10;91.80;;;;;;5073359;28;20596;-74
2022/05/28 03:12:36;;;;;;;0.55;0.40;;;23.10;91.80;;;;;;5073912;28;20235;-74
2022/05/28 03:15:04;;;;;;;0.75;0.40;;;23.10;91.90;;;;;;5073543;28;20234;-74
2022/05/28 03:17:30;;;;;;;0.30;0.30;;;23.10;91.80;;;;;;5073819;28;20200;-74
2022/05/28 03:19:59;;;;;;;1.08;0.35;;;23.10;91.80;;;;;;5073805;28;20294;-74
2022/05/28 03:22:26;;;;;;;0.30;0.30;;;23.10;91.90;;;;;;5073762;28;20212;-75
2022/05/28 03:24:54;;;;;;;1.75;0.20;;;23.10;91.90;;;;;;5073753;28;20206;-75
2022/05/28 03:27:21;;;;;;;0.30;0.28;;;23.10;91.80;;;;;;5073603;28;20226;-75
2022/05/28 03:29:48;;;;;;;0.20;0.20;;;23.10;91.90;;;;;;5073649;28;20314;-75
2022/05/28 03:32:15;;;;;;;1.20;0.32;;;23.10;91.80;;;;;;5073301;28;20633;-75
2022/05/28 03:34:42;;;;;;;0.80;0.45;;;23.10;91.80;;;;;;5073321;28;20662;-75
2022/05/28 03:37:09;;;;;;;0.30;0.30;;;23.10;92.20;;;;;;5073655;28;20283;-75
2022/05/28 03:39:35;;;;;;;4.25;0.20;;;23.10;91.80;;;;;;5073438;28;20223;-75
2022/05/28 03:42:04;;;;;;;5.93;0.40;;;23.10;91.90;;;;;;5073532;28;20295;-75
2022/05/28 03:44:31;;;;;;;2.42;0.40;;;23.10;91.90;;;;;;5073194;28;20203;-75
2022/05/28 03:47:00;;;;;;;3.92;0.50;;;23.10;92.00;;;;;;5073435;28;20294;-75
2022/05/28 03:49:29;;;;;;;0.45;0.30;;;23.10;92.00;;;;;;5073469;28;20632;-75
2022/05/28 03:51:56;;;;;;;1.58;0.30;;;23.10;92.10;;;;;;5073406;28;20209;-75
2022/05/28 03:54:24;;;;;;;0.40;0.30;;;23.10;92.20;;;;;;5073140;28;20663;-75
2022/05/28 03:56:54;;;;;;;0.50;0.50;;;23.10;92.20;;;;;;5073382;28;20206;-75
2022/05/28 03:59:23;;;;;;;0.35;0.30;;;23.10;92.20;;;;;;5073350;28;20306;-75
2022/05/28 04:01:50;;;;;;;4.22;0.40;;;23.10;92.30;;;;;;5073351;28;20282;-74
2022/05/28 04:04:17;;;;;;;0.55;0.30;;;23.10;92.20;;;;;;5073346;28;20207;-74
2022/05/28 04:06:44;;;;;;;0.90;0.40;;;23.10;92.20;;;;;;5073287;28;20210;-74
2022/05/28 04:09:11;;;;;;;0.43;0.43;;;23.10;92.20;;;;;;5074624;28;20723;-74
2022/05/28 04:11:38;;;;;;;0.45;0.30;;;23.10;92.30;;;;;;5077344;28;20206;-74
2022/05/28 04:14:06;;;;;;;2.00;0.30;;;23.10;92.30;;;;;;5076916;28;20303;-74
2022/05/28 04:16:35;;;;;;;1.08;0.30;;;23.10;92.30;;;;;;5077155;28;20203;-75
2022/05/28 04:19:02;;;;;;;0.22;0.22;;;23.10;92.30;;;;;;5077090;28;20219;-75
2022/05/28 04:21:29;;;;;;;3.47;0.43;;;23.10;92.40;;;;;;5076747;28;20226;-75
2022/05/28 04:23:56;;;;;;;2.55;0.20;;;23.10;92.30;;;;;;5077110;28;20235;-75
2022/05/28 04:26:22;;;;;;;0.30;0.30;;;23.10;92.70;;;;;;5076732;28;20658;-75
2022/05/28 04:28:49;;;;;;;0.28;0.28;;;23.10;92.40;;;;;;5076481;28;20306;-75
2022/05/28 04:31:16;;;;;;;1.10;0.20;;;23.10;92.40;;;;;;5076884;28;20199;-75
2022/05/28 04:33:44;;;;;;;0.20;0.20;;;23.10;92.40;;;;;;5076908;28;20206;-74
2022/05/28 04:36:11;;;;;;;0.40;0.40;;;23.10;92.50;;;;;;5076825;28;20286;-74
2022/05/28 04:38:38;;;;;;;0.28;0.28;;;23.10;92.50;;;;;;5076961;28;20238;-74
2022/05/28 04:41:05;;;;;;;1.58;0.40;;;23.10;92.50;;;;;;5076682;28;20199;-74
2022/05/28 04:43:32;;;;;;;0.30;0.30;;;23.10;92.50;;;;;;5076689;28;20290;-74
2022/05/28 04:45:59;;;;;;;0.32;0.25;;;23.10;92.50;;;;;;5076576;28;20199;-74
2022/05/28 04:48:26;;;;;;;0.20;0.20;;;23.00;92.70;;;;;;5076539;28;20216;-74
2022/05/28 04:50:54;;;;;;;1.05;0.40;;;23.10;92.60;;;;;;5076342;28;20216;-74
2022/05/28 04:53:21;;;;;;;0.28;0.28;;;23.10;92.60;;;;;;5077059;28;20202;-74
2022/05/28 04:55:48;;;;;;;0.30;0.30;;;23.10;92.60;;;;;;5076448;28;20231;-74
2022/05/28 04:58:15;;;;;;;0.50;0.50;;;23.10;92.60;;;;;;5076446;28;20199;-74
2022/05/28 05:00:44;;;;;;;1.23;0.40;;;23.10;92.60;;;;;;5076332;28;20225;-74
2022/05/28 05:03:11;;;;;;;0.32;0.32;;;23.10;92.60;;;;;;5076335;28;20205;-74
2022/05/28 05:05:38;;;;;;;1.15;0.50;;;23.10;92.70;;;;;;5076239;28;20226;-75
2022/05/28 05:08:07;;;;;;;0.30;0.30;;;23.10;92.70;;;;;;5076169;28;20219;-75
2022/05/28 05:10:33;;;;;;;0.40;0.40;;;23.10;92.70;;;;;;5075825;28;20227;-75
2022/05/28 05:13:01;;;;;;;0.50;0.30;;;23.10;92.70;;;;;;5076199;28;20294;-75
2022/05/28 05:15:28;;;;;;;0.30;0.30;;;23.10;92.70;;;;;;5076053;28;20199;-75
2022/05/28 05:17:55;;;;;;;0.20;0.20;;;23.10;92.70;;;;;;5076094;28;20196;-75
2022/05/28 05:20:22;;;;;;;0.40;0.40;;;23.10;92.70;;;;;;5075111;28;20749;-75
2022/05/28 05:22:49;;;;;;;0.50;0.50;;;23.10;92.70;;;;;;5075606;28;20666;-75
2022/05/28 05:25:17;;;;;;;0.40;0.40;;;23.10;92.70;;;;;;5075904;28;20290;-75
2022/05/28 05:27:44;;;;;;;0.30;0.30;;;23.10;92.80;;;;;;5075881;28;20226;-75
2022/05/28 05:30:12;;;;;;;0.40;0.30;;;23.00;92.80;;;;;;5075743;28;20223;-75
2022/05/28 05:32:39;;;;;;;1.55;0.30;;;23.10;92.80;;;;;;5075481;28;20680;-74
2022/05/28 05:35:07;;;;;;;0.30;0.30;;;23.00;92.80;;;;;;5075796;28;20290;-76
2022/05/28 05:37:34;;;;;;;0.28;0.28;;;23.10;92.80;;;;;;5075629;28;20290;-76
2022/05/28 05:40:01;;;;;;;0.30;0.30;;;23.00;92.80;;;;;;5075584;28;20216;-76
2022/05/28 05:42:29;;;;;;;0.30;0.30;;;23.00;92.80;;;;;;5075686;28;20231;-76
2022/05/28 05:44:56;;;;;;;0.57;0.35;;;23.10;92.90;;;;;;5075516;28;20295;-74
2022/05/28 05:47:23;;;;;;;0.30;0.30;;;23.00;92.90;;;;;;5075417;28;20199;-74
2022/05/28 05:49:50;;;;;;;0.20;0.20;;;23.00;92.90;;;;;;5074894;28;20657;-75
2022/05/28 05:52:17;;;;;;;0.20;0.20;;;23.00;92.90;;;;;;5075233;28;20253;-74
2022/05/28 05:54:44;;;;;;;0.40;0.38;;;23.10;93.00;;;;;;5074815;28;20209;-77
2022/05/28 05:57:11;;;;;;;2.47;0.20;;;23.00;93.00;;;;;;5074812;28;20263;-77
2022/05/28 05:59:39;;;;;;;0.10;0.10;;;23.10;93.10;;;;;;5074654;28;20223;-76
2022/05/28 06:02:07;;;;;;;7.47;0.60;;;23.10;93.20;;;;;;5074905;28;20199;-76
2022/05/28 06:04:34;;;;;;;0.55;0.30;;;23.10;93.20;;;;;;5075085;28;20195;-76
2022/05/28 06:07:00;;;;;;;0.90;0.60;;;23.10;93.60;;;;;;5075131;28;20290;-76
2022/05/28 06:09:27;;;;;;;1.45;0.30;;;23.10;93.30;;;;;;5074645;28;20285;-76
2022/05/28 06:11:54;;;;;;;0.32;0.25;;;23.10;93.40;;;;;;5075022;28;20200;-76
2022/05/28 06:14:21;;;;;;;1.30;0.57;;;23.10;93.40;;;;;;5075012;28;20238;-76
2022/05/28 06:16:50;;;;;;;0.80;0.20;;;23.10;93.40;;;;;;5074858;28;20246;-76
2022/05/28 06:19:16;;;;;;;0.45;0.20;;;23.10;93.50;;;;;;5074772;28;20298;-76
2022/05/28 06:21:43;;;;;;;0.32;0.20;;;23.10;93.50;;;;;;5074846;28;20234;-76
2022/05/28 06:24:10;;;;;;;0.20;0.20;;;23.10;93.60;;;;;;5074388;28;20653;-77
2022/05/28 06:26:37;;;;;;;0.50;0.20;;;23.10;93.60;;;;;;5074688;28;20238;-77
2022/05/28 06:29:04;;;;;;;1.08;0.20;;;23.10;93.60;;;;;;5074551;28;20226;-77
2022/05/28 06:31:31;;;;;;;0.17;0.10;;;23.10;93.70;;;;;;5073834;28;20208;-76
2022/05/28 06:33:59;;;;;;;0.13;0.13;;;23.10;93.70;;;;;;5074533;28;20286;-76
2022/05/28 06:36:26;;;;;;;0.38;0.20;;;23.10;93.80;;;;;;5074181;28;20207;-77
2022/05/28 06:38:53;;;;;;;0.20;0.20;;;23.00;93.80;;;;;;5074416;28;20251;-77
2022/05/28 06:41:20;;;;;;;0.20;0.20;;;23.10;93.90;;;;;;5074401;28;20229;-78
2022/05/28 06:43:47;;;;;;;0.52;0.28;;;23.10;94.00;;;;;;5074215;28;20238;-77
2022/05/28 06:46:14;;;;;;;0.20;0.20;;;23.10;94.00;;;;;;5074646;28;20242;-77
2022/05/28 06:48:41;;;;;;;0.40;0.30;;;23.10;94.00;;;;;;5075542;28;20219;-78
2022/05/28 06:51:10;;;;;;;0.20;0.20;;;23.10;94.00;;;;;;5077127;28;20289;-76
2022/05/28 06:53:40;;;;;;;0.88;0.30;;;23.10;94.10;;;;;;5075866;28;20682;-77
2022/05/28 06:56:08;;;;;;;0.47;0.17;;;23.10;94.20;;;;;;5079530;28;20257;-76
2022/05/28 06:58:36;;;;;;;0.98;0.20;;;23.10;94.20;;;;;;5079279;28;20249;-76
2022/05/28 07:01:06;;;;;;;2.35;0.20;;;23.10;94.30;;;;;;5079477;28;20617;-76
2022/05/28 07:03:34;;;;;;;3.08;0.10;;;23.10;94.40;;;;;;5080480;28;20598;-75
2022/05/28 07:06:02;;;;;;;3.63;0.30;;;23.10;94.40;;;;;;5080898;28;20631;-75
2022/05/28 07:08:31;;;;;;;14.82;0.93;;;23.10;94.80;;;;;;5080776;28;20686;-75
2022/05/28 07:11:00;;;;;;;2.05;0.30;;;23.10;94.50;;;;;;5079002;28;20215;-75
2022/05/28 07:13:29;;;;;;;0.57;0.30;;;23.10;94.60;;;;;;5079566;28;20200;-75
2022/05/28 07:15:56;;;;;;;0.57;0.20;;;23.10;94.70;;;;;;5079166;28;20200;-76
2022/05/28 07:18:24;;;;;;;0.85;0.30;;;23.10;94.80;;;;;;5079531;28;20217;-76
2022/05/28 07:20:52;;;;;;;0.55;0.40;;;23.10;94.90;;;;;;5078831;28;20767;-77
2022/05/28 07:23:21;;;;;;;1.25;0.30;;;23.10;95.00;;;;;;5079304;28;20671;-79
2022/05/28 07:25:53;;;;;;;1.65;0.10;;;23.10;95.00;;;;;;5078792;28;20203;-78
2022/05/28 07:28:27;;;;;;;2.63;0.43;;;23.10;95.10;;;;;;5079618;28;20625;-78
2022/05/28 07:30:56;;;;;;;2.47;0.20;;;23.10;95.20;;;;;;5079133;28;20234;-78
2022/05/28 07:33:25;;;;;;;0.65;0.32;;;23.10;95.30;;;;;;5079244;28;20202;-77
2022/05/28 07:35:53;;;;;;;3.50;0.40;;;23.10;95.40;;;;;;5077320;28;20199;-79
2022/05/28 07:38:20;;;;;;;3.15;0.45;;;23.10;95.50;;;;;;5081343;28;20211;-80
2022/05/28 07:40:50;;;;;;;8.10;0.90;;;23.10;95.50;;;;;;5081114;28;20255;-79
2022/05/28 07:43:17;;;;;;;2.28;1.00;;;23.10;95.30;;;;;;5078879;28;20655;-81
2022/05/28 07:45:46;;;;;;;3.80;1.70;;;23.10;95.10;;;;;;5079747;28;20199;-80
2022/05/28 07:48:15;;;;;;;7.68;1.42;;;23.00;94.80;;;;;;5080560;28;20195;-81
2022/05/28 07:50:43;;;;;;;7.70;1.90;;;23.00;94.50;;;;;;5081766;28;20313;-81
2022/05/28 07:53:11;;;;;;;4.88;1.38;;;23.00;94.30;;;;;;5081378;28;20222;-80
2022/05/28 07:55:38;;;;;;;3.90;1.00;;;23.00;94.30;;;;;;5081023;28;20195;-80
2022/05/28 07:58:09;;;;;;;3.65;1.13;;;23.00;94.20;;;;;;5079848;28;20195;-80
2022/05/28 08:00:38;;;;;;;2.28;0.70;;;23.00;94.10;;;;;;5077086;28;20304;-80
2022/05/28 08:03:06;;;;;;;2.22;1.20;;;23.00;93.90;;;;;;5076751;28;20290;-80
2022/05/28 08:05:33;;;;;;;6.80;0.68;;;22.90;93.80;;;;;;5075600;28;20196;-80
2022/05/28 08:08:00;;;;;;;2.10;0.93;;;22.90;93.70;;;;;;5075710;28;20293;-80
2022/05/28 08:10:27;;;;;;;3.40;1.08;;;22.90;93.50;;;;;;5075957;28;20234;-80
2022/05/28 08:12:54;;;;;;;1.65;0.75;;;22.90;93.30;;;;;;5076392;28;20294;-79
2022/05/28 08:15:22;;;;;;;2.97;0.60;;;22.90;93.20;;;;;;5074385;28;20199;-78
2022/05/28 08:17:49;;;;;;;0.73;0.60;;;22.90;93.00;;;;;;5073860;28;20199;-78
2022/05/28 08:20:16;;;;;;;0.60;0.50;;;22.90;93.20;;;;;;5072826;28;20716;-78
2022/05/28 08:25:27;;;;;;;3.20;1.40;;;22.90;92.20;;;;;;5073397;28;20182;-75
2022/05/28 08:27:54;;;;;;;5.85;1.95;;;22.90;91.30;;;;;;5073078;28;20540;-75
2022/05/28 08:30:22;;;;;;;12.00;2.20;;;22.70;90.50;;;;;;5072724;28;20229;-78
2022/05/28 08:32:49;;;;;;;11.57;1.52;;;22.60;88.00;;;;;;5074643;28;20223;-78
2022/05/28 08:35:16;;;;;;;6.25;1.27;;;22.50;87.50;;;;;;5072934;28;20210;-77
2022/05/28 08:37:43;;;;;;;7.68;1.20;;;22.40;87.20;;;;;;5073225;28;20222;-75
2022/05/28 08:40:13;;;;;;;6.97;1.30;;;22.40;87.00;;;;;;5073275;28;20218;-76
2022/05/28 08:42:43;;;;;;;12.50;2.47;;;22.50;86.50;;;;;;5073778;28;20291;-80
2022/05/28 08:45:13;;;;;;;16.48;2.83;;;22.50;85.90;;;;;;5074111;28;20184;-78
2022/05/28 08:47:44;;;;;;;14.27;1.92;;;22.50;85.10;;;;;;5072588;28;20689;-76
2022/05/28 08:50:12;;;;;;;5.20;1.48;;;22.50;84.30;;;;;;5072769;28;20228;-76
2022/05/28 08:52:44;;;;;;;8.60;2.00;;;22.50;83.60;;;;;;5072913;28;20241;-76
2022/05/28 08:55:16;;;;;;;10.52;2.05;;;22.60;83.10;;;;;;5074275;28;20726;-76
2022/05/28 08:57:53;;;;;;;9.10;2.00;;;22.60;82.30;;;;;;5076452;28;20219;-76
2022/05/28 09:00:33;;;;;;;9.57;1.90;;;22.60;82.30;;;;;;5076339;28;20211;-76
2022/05/28 09:03:07;;;;;;;8.45;1.83;;;22.60;81.60;;;;;;5076376;28;20274;-76
2022/05/28 09:05:45;;;;;;;10.18;1.83;;;22.60;81.30;;;;;;5076333;28;20534;-76
2022/05/28 09:08:14;;;;;;;8.60;2.00;;;22.70;80.80;;;;;;5075966;28;20190;-76
2022/05/28 09:10:45;;;;;;;12.75;2.10;;;22.70;80.30;;;;;;5075580;28;20694;-76
2022/05/28 09:13:21;;;;;;;8.50;2.45;;;22.70;79.80;;;;;;5076146;28;20194;-76
2022/05/28 09:15:49;;;;;;;8.68;2.17;;;22.70;79.30;;;;;;5076091;28;20180;-76
2022/05/28 09:18:21;;;;;;;7.03;1.55;;;22.70;79.10;;;;;;5076125;28;20206;-76
2022/05/28 09:20:48;;;;;;;9.02;2.38;;;22.70;78.60;;;;;;5075789;28;20218;-76
2022/05/28 09:23:15;;;;;;;9.55;1.88;;;22.70;78.30;;;;;;5076046;28;20204;-76
2022/05/28 09:25:46;;;;;;;8.77;1.92;;;22.70;77.90;;;;;;5075670;28;20565;-76
2022/05/28 09:28:27;;;;;;;6.13;1.65;;;22.80;77.60;;;;;;5075999;28;20623;-76
2022/05/28 09:31:03;;;;;;;8.40;2.08;;;22.80;77.20;;;;;;5075491;28;20678;-76
2022/05/28 09:33:45;;;;;;;5.03;1.63;;;22.80;76.80;;;;;;5075615;28;20194;-76
2022/05/28 09:36:21;;;;;;;9.95;1.40;;;22.80;76.70;;;;;;5075838;28;20184;-76
2022/05/28 09:39:00;;;;;;;14.43;1.75;;;22.80;76.70;;;;;;5075833;28;20187;-76
2022/05/28 09:41:40;;;;;;;8.50;1.88;;;22.90;76.20;;;;;;5075502;28;20601;-76
2022/05/28 09:44:18;;;;;;;15.35;1.85;;;22.90;76.00;;;;;;5075914;28;20287;-76
2022/05/28 09:46:45;;;;;;;4.90;1.35;;;22.90;75.70;;;;;;5075636;28;20280;-76
2022/05/28 09:49:16;;;;;;;5.30;1.30;;;22.90;75.60;;;;;;5075427;28;20234;-76
2022/05/28 09:51:54;;;;;;;3.25;1.45;;;22.90;75.20;;;;;;5075570;28;20191;-76
2022/05/28 09:54:23;;;;;;;6.60;1.80;;;22.90;74.80;;;;;;5075213;28;20653;-76
2022/05/28 09:56:56;;;;;;;3.30;1.40;;;22.90;74.80;;;;;;5075421;28;20218;-76
2022/05/28 09:59:28;;;;;;;4.80;1.35;;;22.90;74.50;;;;;;5075022;28;20658;-76
2022/05/28 10:01:58;;;;;;;2.35;1.40;;;22.90;74.30;;;;;;5075025;28;20625;-76
2022/05/28 10:04:29;;;;;;;4.65;1.30;;;22.90;74.10;;;;;;5075291;28;20183;-77
2022/05/28 10:06:58;;;;;;;7.55;1.88;;;22.90;73.90;;;;;;5075166;28;20184;-77
2022/05/28 10:09:27;;;;;;;3.63;1.52;;;22.90;73.70;;;;;;5074771;28;20591;-77
2022/05/28 10:11:56;;;;;;;7.05;1.52;;;22.90;73.50;;;;;;5075062;28;20210;-77
2022/05/28 10:14:24;;;;;;;2.60;1.30;;;23.00;73.40;;;;;;5074713;28;20535;-77
2022/05/28 10:16:55;;;;;;;8.88;1.65;;;23.00;73.20;;;;;;5074979;28;20225;-77
2022/05/28 10:19:29;;;;;;;4.22;1.38;;;23.00;73.00;;;;;;5074616;28;20230;-77
2022/05/28 10:21:59;;;;;;;8.82;1.65;;;23.00;72.90;;;;;;5074639;28;20184;-77
2022/05/28 10:24:29;;;;;;;3.25;1.20;;;23.00;72.80;;;;;;5074767;28;20208;-77
2022/05/28 10:26:58;;;;;;;4.30;1.58;;;23.00;72.70;;;;;;5074824;28;20281;-77
2022/05/28 10:29:28;;;;;;;5.88;1.20;;;23.00;72.50;;;;;;5074624;28;20227;-76
2022/05/28 10:31:57;;;;;;;5.68;1.10;;;23.00;72.30;;;;;;5075043;28;20184;-77
2022/05/28 10:34:34;;;;;;;3.13;1.42;;;23.00;72.10;;;;;;5074594;28;20200;-77
2022/05/28 10:37:13;;;;;;;5.28;1.58;;;23.10;72.00;;;;;;5075073;28;20706;-78
2022/05/28 10:39:41;;;;;;;7.25;1.45;;;23.10;71.90;;;;;;5075783;28;20302;-78
2022/05/28 10:42:10;;;;;;;8.02;1.67;;;23.00;71.80;;;;;;5076420;28;20299;-78
2022/05/28 10:44:39;;;;;;;4.07;1.58;;;23.00;71.60;;;;;;5077090;28;20631;-78
2022/05/28 10:47:20;;;;;;;5.70;1.42;;;23.00;71.30;;;;;;5077981;28;20203;-78
2022/05/28 10:50:05;;;;;;;3.63;1.50;;;23.10;71.20;;;;;;5077600;28;20674;-78
2022/05/28 10:52:42;;;;;;;3.17;1.35;;;23.10;71.10;;;;;;5076611;28;20192;-78
2022/05/28 10:55:12;;;;;;;7.22;1.33;;;23.10;71.10;;;;;;5075205;28;20274;-78
2022/05/28 10:57:49;;;;;;;6.93;1.40;;;23.00;71.00;;;;;;5075049;28;20203;-78
2022/05/28 11:00:19;;;;;;;7.97;1.50;;;23.10;71.10;;;;;;5079060;28;20713;-78
2022/05/28 11:03:33;;;;;;;4.03;1.55;;;23.10;71.10;;;;;;5076650;28;20203;-78
2022/05/28 11:06:41;;;;;;;6.03;1.30;;;23.10;70.90;;;;;;5076437;28;20199;-78
2022/05/28 11:09:13;;;;;;;3.65;1.38;;;23.10;71.00;;;;;;5045721;28;20235;-78
2022/05/28 11:11:53;;;;;;;7.28;1.38;;;23.00;71.00;;;;;;5079308;28;20206;-78
2022/05/28 11:14:42;;;;;;;5.10;1.40;;;23.10;70.90;;;;;;5074038;28;20187;-74
2022/05/28 11:17:21;;;;;;;2.63;1.23;;;23.10;70.60;;;;;;5073237;28;20229;-74
2022/05/28 11:20:20;;;;;;;3.55;1.35;;;23.10;70.60;;;;;;5073494;28;20759;-74
2022/05/28 11:23:08;;;;;;;6.72;1.30;;;23.10;70.40;;;;;;5068723;28;20243;-75
2022/05/28 11:25:50;;;;;;;7.45;1.40;;;23.10;70.40;;;;;;5073543;28;20633;-76
2022/05/28 11:28:45;;;;;;;7.22;1.20;;;23.10;70.40;;;;;;5074275;28;20218;-77
2022/05/28 11:31:19;;;;;;;4.03;0.77;;;23.10;69.90;;;;;;5073825;28;20237;-77
2022/05/28 11:33:50;;;;;;;2.10;1.00;;;23.10;69.30;;;;;;5078660;28;20270;-79
2022/05/28 11:36:24;;;;;;;4.28;1.13;;;23.00;68.50;;;;;;5076358;28;20179;-78
2022/05/28 11:38:57;;;;;;;2.55;0.70;;;23.00;67.60;;;;;;5078655;28;20256;-78
2022/05/28 11:41:29;;;;;;;1.17;0.80;;;22.90;66.70;;;;;;5075907;28;20631;-79
2022/05/28 11:44:04;;;;;;;2.42;1.17;;;22.80;65.80;;;;;;5076713;28;20194;-79
2022/05/28 11:46:38;;;;;;;1.73;0.73;;;22.70;64.80;;;;;;5074203;28;20187;-78
2022/05/28 11:51:59;;;;;;;2.72;0.68;;;22.60;63.80;;;;;;5076274;28;20234;-78
2022/05/28 11:54:33;;;;;;;1.08;0.90;;;22.60;63.20;;;;;;5074018;28;20184;-78
2022/05/28 11:57:07;;;;;;;0.60;0.60;;;22.60;62.60;;;;;;5074405;28;20188;-78
2022/05/28 11:59:36;;;;;;;0.60;0.60;;;22.60;62.10;;;;;;5074199;28;20219;-77
2022/05/28 12:02:08;;;;;;;1.83;1.08;;;22.60;61.60;;;;;;5075885;28;20203;-79
2022/05/28 12:04:39;;;;;;;0.75;0.60;;;22.60;61.20;;;;;;5077159;28;20213;-79
2022/05/28 12:07:10;;;;;;;2.63;0.80;;;22.70;60.80;;;;;;5076902;28;20702;-79
2022/05/28 12:09:47;;;;;;;2.03;0.60;;;22.70;61.00;;;;;;5075848;28;20309;-78
2022/05/28 12:12:19;;;;;;;5.57;0.85;;;22.70;59.70;;;;;;5079039;28;20191;-79
2022/05/28 12:14:48;;;;;;;4.57;0.85;;;22.70;59.40;;;;;;5079971;28;20279;-79
2022/05/28 12:17:26;;;;;;;11.77;1.23;;;22.70;58.90;;;;;;5078061;28;20230;-78
2022/05/28 12:19:56;;;;;;;3.90;1.08;;;22.80;59.00;;;;;;5079452;28;20302;-79
2022/05/28 12:22:30;;;;;;;2.72;1.05;;;22.70;58.70;;;;;;5074761;28;20184;-78
2022/05/28 12:25:05;;;;;;;4.22;1.00;;;22.80;58.20;;;;;;5074358;28;20190;-78
2022/05/28 12:27:42;;;;;;;8.43;1.05;;;22.80;57.90;;;;;;5081793;28;20639;-79
2022/05/28 12:30:24;;;;;;;2.92;0.55;;;22.80;57.50;;;;;;5078407;28;20230;-78
2022/05/28 12:32:52;;;;;;;1.48;0.85;;;22.80;57.20;;;;;;5077161;28;20187;-78
2022/05/28 12:35:38;;;;;;;6.78;1.10;;;22.70;56.60;;;;;;5077042;28;20547;-78
2022/05/28 12:38:19;;;;;;;4.72;1.20;;;22.80;56.40;;;;;;5076983;28;20262;-78
2022/05/28 12:40:54;;;;;;;5.53;1.27;;;22.80;56.10;;;;;;5076790;28;20576;-78
2022/05/28 12:43:28;;;;;;;4.63;0.90;;;22.80;56.00;;;;;;5076841;28;20206;-78
2022/05/28 12:45:57;;;;;;;2.78;1.00;;;22.80;55.60;;;;;;5076481;28;20647;-78
2022/05/28 12:48:27;;;;;;;3.85;1.13;;;22.80;55.40;;;;;;5076524;28;20227;-78
2022/05/28 12:51:05;;;;;;;4.95;0.65;;;22.80;55.20;;;;;;5076542;28;20227;-78
2022/05/28 12:53:35;;;;;;;5.50;0.82;;;22.90;54.90;;;;;;5076412;28;20184;-78
2022/05/28 12:56:06;;;;;;;4.53;1.13;;;22.90;54.70;;;;;;5076587;28;20198;-78
2022/05/28 12:58:36;;;;;;;3.25;0.82;;;22.90;54.30;;;;;;5076966;28;20249;-78
2022/05/28 13:01:05;;;;;;;1.98;0.60;;;22.80;54.20;;;;;;5076553;28;20282;-78
2022/05/28 13:03:36;;;;;;;2.85;1.15;;;22.90;54.90;;;;;;5076170;28;20700;-78
2022/05/28 13:06:08;;;;;;;2.65;0.75;;;22.90;54.10;;;;;;5076451;28;20198;-78